createdAt,value
2019-04-03T00:02:27.636Z,9.78
2019-04-03T00:05:00.304Z,5.20
2019-04-03T00:07:35.165Z,3.80
2019-04-03T00:10:09.543Z,11.03
2019-04-03T00:12:42.041Z,6.95
2019-04-03T00:15:15.301Z,3.90
2019-04-03T00:17:47.751Z,4.35
2019-04-03T00:20:20.371Z,5.53
2019-04-03T00:22:52.757Z,6.45
2019-04-03T00:25:25.323Z,3.90
2019-04-03T00:27:57.751Z,4.28
2019-04-03T00:30:31.728Z,3.75
2019-04-03T00:33:04.115Z,5.45
2019-04-03T00:35:36.615Z,3.77
2019-04-03T00:38:09.650Z,5.05
2019-04-03T00:40:42.256Z,3.70
2019-04-03T00:43:15.531Z,3.47
2019-04-03T00:45:49.325Z,5.10
2019-04-03T00:48:21.627Z,4.33
2019-04-03T00:50:56.286Z,5.12
2019-04-03T00:53:28.555Z,3.12
2019-04-03T00:56:00.842Z,5.22
2019-04-03T00:58:43.289Z,8.93
2019-04-03T01:01:16.196Z,4.30
2019-04-03T01:03:50.306Z,3.92
2019-04-03T01:06:22.249Z,4.78
2019-04-03T01:08:54.523Z,8.50
2019-04-03T01:11:30.144Z,4.78
2019-04-03T01:14:02.304Z,7.83
2019-04-03T01:16:34.663Z,2.92
2019-04-03T01:19:07.297Z,3.40
2019-04-03T01:21:39.873Z,4.52
2019-04-03T01:24:12.397Z,3.70
2019-04-03T01:29:16.333Z,6.30
2019-04-03T01:34:20.420Z,3.45
2019-04-03T01:36:52.793Z,6.30
2019-04-03T01:39:25.293Z,6.10
2019-04-03T01:44:29.422Z,3.33
2019-04-03T01:47:01.780Z,4.33
2019-04-03T01:49:34.374Z,2.92
2019-04-03T01:52:07.104Z,6.58
2019-04-03T01:54:40.468Z,5.22
2019-04-03T01:57:12.905Z,7.12
2019-04-03T01:59:46.718Z,3.47
2019-04-03T02:02:20.641Z,3.70
2019-04-03T02:04:54.039Z,2.77
2019-04-03T02:07:26.483Z,7.30
2019-04-03T02:09:58.762Z,2.72
2019-04-03T02:12:31.292Z,4.30
2019-04-03T02:15:03.697Z,5.80
2019-04-03T02:17:36.455Z,5.85
2019-04-03T02:20:11.400Z,3.82
2019-04-03T02:22:43.888Z,3.20
2019-04-03T02:25:16.372Z,5.10
2019-04-03T02:27:48.536Z,4.05
2019-04-03T02:30:20.724Z,4.35
2019-04-03T02:32:56.625Z,3.75
2019-04-03T02:35:27.512Z,5.42
2019-04-03T02:37:59.776Z,5.03
2019-04-03T02:40:33.125Z,6.50
2019-04-03T02:43:05.845Z,3.35
2019-04-03T02:45:38.466Z,6.55
2019-04-03T02:48:10.901Z,4.33
2019-04-03T02:50:46.546Z,4.90
2019-04-03T02:53:18.046Z,6.80
2019-04-03T02:55:50.527Z,3.25
2019-04-03T02:58:23.446Z,9.20
2019-04-03T03:00:56.008Z,8.68
2019-04-03T03:03:29.034Z,6.75
2019-04-03T03:06:01.824Z,7.42
2019-04-03T03:08:35.319Z,7.78
2019-04-03T03:11:10.004Z,4.40
2019-04-03T03:13:42.842Z,5.67
2019-04-03T03:18:49.287Z,7.25
2019-04-03T03:21:23.315Z,3.80
2019-04-03T03:23:57.256Z,5.87
2019-04-03T03:26:31.300Z,4.53
2019-04-03T03:29:16.991Z,5.70
2019-04-03T03:32:03.038Z,5.90
2019-04-03T03:34:16.842Z,4.03
2019-04-03T03:36:50.848Z,7.03
2019-04-03T03:41:58.607Z,4.55
2019-04-03T03:44:31.880Z,6.50
2019-04-03T03:47:27.666Z,8.93
2019-04-03T03:52:38.224Z,9.33
2019-04-03T03:55:13.850Z,8.20
2019-04-03T04:09:38.040Z,3.45
2019-04-03T04:12:11.345Z,7.50
2019-04-03T04:14:46.626Z,8.93
2019-04-03T04:17:19.668Z,7.10
2019-04-03T04:19:52.679Z,5.25
2019-04-03T04:22:27.848Z,8.00
2019-04-03T04:25:04.054Z,6.90
2019-04-03T04:27:38.629Z,8.75
2019-04-03T04:30:12.919Z,11.40
2019-04-03T04:32:46.512Z,6.74
2019-04-03T04:35:21.456Z,6.47
2019-04-03T04:37:55.273Z,8.60
2019-04-03T04:40:29.007Z,7.15
2019-04-03T04:43:03.622Z,10.35
2019-04-03T04:45:40.687Z,8.18
2019-04-03T04:48:15.833Z,10.05
2019-04-03T04:50:47.421Z,8.28
2019-04-03T04:53:20.082Z,6.67
2019-04-03T04:55:52.760Z,9.00
2019-04-03T04:58:25.331Z,9.30
2019-04-03T05:00:59.512Z,7.92
2019-04-03T05:03:31.911Z,5.37
2019-04-03T05:06:04.325Z,8.33
2019-04-03T05:08:36.714Z,7.25
2019-04-03T05:11:09.322Z,5.97
2019-04-03T05:13:41.856Z,6.17
2019-04-03T05:16:14.609Z,7.50
2019-04-03T05:18:47.314Z,6.87
2019-04-03T05:21:21.743Z,7.80
2019-04-03T05:23:55.945Z,6.17
2019-04-03T05:26:28.760Z,10.72
2019-04-03T05:29:01.314Z,6.42
2019-04-03T05:31:34.057Z,5.85
2019-04-03T05:36:51.994Z,9.88
2019-04-03T05:39:24.738Z,6.65
2019-04-03T05:41:59.524Z,8.83
2019-04-03T05:44:33.465Z,9.00
2019-04-03T05:47:08.135Z,11.73
2019-04-03T05:49:42.281Z,10.20
2019-04-03T05:52:14.897Z,13.28
2019-04-03T05:54:49.837Z,11.13
2019-04-03T05:57:22.394Z,11.33
2019-04-03T06:00:00.650Z,11.53
2019-04-03T06:02:30.542Z,9.25
2019-04-03T06:05:05.970Z,9.65
2019-04-03T06:07:37.562Z,8.68
2019-04-03T06:10:11.733Z,10.63
2019-04-03T06:12:46.333Z,9.80
2019-04-03T06:15:21.813Z,21.90
2019-04-03T06:17:55.090Z,6.60
2019-04-03T06:20:28.167Z,7.40
2019-04-03T06:23:02.564Z,8.00
2019-04-03T06:25:35.292Z,12.18
2019-04-03T06:28:07.627Z,8.00
2019-04-03T06:30:41.983Z,12.47
2019-04-03T06:33:14.983Z,9.18
2019-04-03T06:35:47.992Z,10.53
2019-04-03T06:38:20.365Z,7.25
2019-04-03T06:40:52.392Z,13.27
2019-04-03T06:43:24.312Z,16.60
2019-04-03T06:45:59.593Z,21.20
2019-04-03T06:48:32.309Z,25.77
2019-04-03T06:51:04.280Z,11.62
2019-04-03T06:53:36.245Z,6.97
2019-04-03T06:56:10.448Z,11.12
2019-04-03T06:58:44.409Z,12.90
2019-04-03T07:03:55.041Z,11.80
2019-04-03T07:06:27.698Z,14.03
2019-04-03T07:09:00.499Z,17.17
2019-04-03T07:11:34.625Z,14.47
2019-04-03T07:14:10.721Z,10.03
2019-04-03T07:16:46.558Z,15.93
2019-04-03T07:19:19.319Z,16.85
2019-04-03T07:21:52.999Z,12.50
2019-04-03T07:28:09.065Z,11.15
2019-04-03T07:30:44.844Z,31.02
2019-04-03T07:33:18.600Z,32.00
2019-04-03T07:35:51.452Z,35.83
2019-04-03T07:38:23.835Z,29.52
2019-04-03T07:40:56.367Z,19.67
2019-04-03T07:43:28.719Z,10.13
2019-04-03T07:46:01.685Z,8.80
2019-04-03T07:48:37.154Z,5.20
2019-04-03T07:51:12.498Z,9.00
2019-04-03T07:53:43.596Z,10.00
2019-04-03T07:56:16.593Z,7.70
2019-04-03T08:01:23.443Z,8.20
2019-04-03T08:06:27.911Z,6.95
2019-04-03T08:09:08.433Z,11.30
2019-04-03T08:14:09.975Z,6.72
2019-04-03T08:19:15.671Z,7.67
2019-04-03T08:21:50.604Z,7.12
2019-04-03T08:24:23.543Z,6.78
2019-04-03T08:26:56.266Z,10.78
2019-04-03T08:29:28.598Z,5.72
2019-04-03T08:32:02.740Z,6.33
2019-04-03T08:34:35.317Z,3.60
2019-04-03T08:37:10.379Z,3.60
2019-04-03T08:39:43.988Z,8.28
2019-04-03T08:42:16.641Z,4.90
2019-04-03T08:44:49.320Z,7.70
2019-04-03T08:47:21.751Z,3.60
2019-04-03T08:49:56.400Z,7.03
2019-04-03T08:52:28.448Z,5.90
2019-04-03T08:55:00.971Z,3.40
2019-04-03T08:57:33.363Z,4.80
2019-04-03T09:00:09.476Z,4.62
2019-04-03T09:02:44.104Z,9.88
2019-04-03T09:05:19.704Z,4.37
2019-04-03T09:07:55.358Z,2.80
2019-04-03T09:10:27.512Z,2.40
2019-04-03T09:12:59.874Z,3.83
2019-04-03T09:15:32.454Z,5.10
2019-04-03T09:18:06.426Z,3.67
2019-04-03T09:20:43.466Z,3.80
2019-04-03T09:23:17.318Z,5.05
2019-04-03T09:25:49.869Z,3.12
2019-04-03T09:28:22.811Z,2.95
2019-04-03T09:30:55.503Z,3.02
2019-04-03T09:33:29.830Z,2.30
2019-04-03T09:36:04.377Z,3.87
2019-04-03T09:38:36.507Z,3.85
2019-04-03T09:41:09.357Z,2.62
2019-04-03T09:43:43.505Z,2.62
2019-04-03T09:46:15.775Z,2.40
2019-04-03T09:48:48.299Z,5.32
2019-04-03T09:51:22.780Z,5.30
2019-04-03T09:53:57.071Z,2.60
2019-04-03T09:56:28.924Z,3.08
2019-04-03T09:59:06.732Z,2.45
2019-04-03T10:01:41.606Z,2.60
2019-04-03T10:04:14.376Z,4.00
2019-04-03T10:06:47.464Z,3.37
2019-04-03T10:09:20.071Z,3.98
2019-04-03T10:11:53.031Z,2.90
2019-04-03T10:16:59.000Z,2.87
2019-04-03T10:19:33.442Z,4.05
2019-04-03T10:24:39.290Z,3.70
2019-04-03T10:27:12.666Z,2.58
2019-04-03T10:29:45.494Z,2.77
2019-04-03T10:32:18.290Z,3.17
2019-04-03T10:34:50.370Z,4.05
2019-04-03T10:37:22.275Z,3.50
2019-04-03T10:44:58.331Z,2.37
2019-04-03T10:47:41.343Z,4.90
2019-04-03T10:50:09.341Z,2.70
2019-04-03T10:52:44.048Z,2.08
2019-04-03T10:55:17.079Z,3.00
2019-04-03T10:57:50.400Z,3.12
2019-04-03T11:00:24.880Z,2.00
2019-04-03T11:02:57.476Z,2.37
2019-04-03T11:05:30.356Z,2.98
2019-04-03T11:08:04.291Z,8.23
2019-04-03T11:10:38.618Z,2.72
2019-04-03T11:13:11.315Z,1.45
2019-04-03T11:15:46.003Z,2.12
2019-04-03T11:18:18.871Z,1.90
2019-04-03T11:20:52.466Z,2.72
2019-04-03T11:23:38.651Z,3.62
2019-04-03T11:26:00.761Z,3.10
2019-04-03T11:28:36.987Z,2.10
2019-04-03T11:31:07.616Z,4.43
2019-04-03T11:33:40.452Z,2.10
2019-04-03T11:38:53.578Z,2.15
2019-04-03T11:41:26.012Z,3.17
2019-04-03T11:43:58.547Z,3.83
2019-04-03T11:47:20.020Z,3.80
2019-04-03T11:49:53.235Z,2.80
2019-04-03T11:52:25.737Z,4.25
2019-04-03T11:54:58.316Z,2.92
2019-04-03T11:57:30.772Z,5.03
2019-04-03T12:00:05.326Z,4.42
2019-04-03T12:02:39.102Z,2.10
2019-04-03T12:05:15.371Z,4.55
2019-04-03T12:13:46.749Z,5.30
2019-04-03T12:18:53.842Z,3.40
2019-04-03T12:21:32.194Z,2.72
2019-04-03T12:24:05.293Z,5.17
2019-04-03T12:26:42.985Z,2.72
2019-04-03T12:31:48.298Z,3.83
2019-04-03T12:34:24.049Z,2.83
2019-04-03T12:39:29.753Z,4.65
2019-04-03T12:42:02.561Z,4.10
2019-04-03T12:44:36.830Z,3.70
2019-04-03T12:47:12.373Z,4.17
2019-04-03T12:49:45.304Z,4.17
2019-04-03T12:52:19.379Z,2.90
2019-04-03T12:54:53.756Z,5.15
2019-04-03T12:57:29.141Z,4.55
2019-04-03T13:00:04.697Z,7.17
2019-04-03T13:02:37.418Z,5.03
2019-04-03T13:05:13.478Z,6.78
2019-04-03T13:07:47.472Z,10.75
2019-04-03T13:10:23.547Z,11.73
2019-04-03T13:12:57.056Z,8.80
2019-04-03T13:15:29.661Z,4.47
2019-04-03T13:18:05.527Z,5.33
2019-04-03T13:20:38.690Z,5.30
2019-04-03T13:23:13.314Z,8.63
2019-04-03T13:25:54.594Z,3.90
2019-04-03T13:28:29.451Z,8.68
2019-04-03T13:31:06.620Z,3.40
2019-04-03T13:33:39.796Z,2.70
2019-04-03T13:36:13.754Z,2.90
2019-04-03T14:10:53.332Z,3.58
2019-04-03T14:13:26.269Z,5.08
2019-04-03T14:15:59.085Z,3.50
2019-04-03T14:18:31.558Z,3.27
2019-04-03T14:21:04.105Z,3.22
2019-04-03T14:23:39.768Z,3.55
2019-04-03T14:26:13.828Z,3.00
2019-04-03T14:28:46.356Z,2.68
2019-04-03T14:31:19.296Z,3.70
2019-04-03T14:40:57.349Z,2.40
2019-04-03T14:44:09.929Z,3.15
2019-04-03T14:46:43.526Z,3.50
2019-04-03T14:49:45.298Z,2.58
2019-04-03T14:56:09.952Z,2.17
2019-04-03T15:08:49.160Z,4.85
2019-04-03T15:11:22.047Z,3.47
2019-04-03T15:13:54.500Z,2.63
2019-04-03T15:16:27.629Z,2.35
2019-04-03T15:19:02.604Z,5.90
2019-04-03T15:21:35.514Z,4.30
2019-04-03T15:24:08.943Z,2.15
2019-04-03T15:26:45.286Z,3.35
2019-04-03T15:29:18.291Z,4.90
2019-04-03T15:31:51.535Z,2.05
2019-04-03T15:34:27.740Z,2.97
2019-04-03T15:37:00.704Z,1.80
2019-04-03T15:39:33.512Z,2.12
2019-04-03T15:42:06.686Z,2.20
2019-04-03T15:44:42.618Z,1.70
2019-04-03T15:47:28.258Z,1.52
2019-04-03T15:49:52.701Z,4.04
2019-04-03T15:52:25.718Z,3.05
2019-04-03T15:54:58.836Z,2.58
2019-04-03T15:57:32.058Z,2.70
2019-04-03T16:00:12.893Z,1.60
2019-04-03T16:02:46.681Z,2.08
2019-04-03T16:05:20.141Z,2.08
2019-04-03T16:07:52.831Z,2.18
2019-04-03T16:10:25.827Z,2.25
2019-04-03T16:13:09.055Z,14.40
2019-04-03T16:15:42.051Z,2.50
2019-04-03T16:18:14.714Z,3.83
2019-04-03T16:20:50.092Z,24.82
2019-04-03T16:23:23.649Z,5.72
2019-04-03T16:25:56.511Z,2.75
2019-04-03T16:28:29.679Z,2.12
2019-04-03T16:31:03.895Z,12.55
2019-04-03T16:33:37.017Z,4.17
2019-04-03T16:36:11.310Z,2.52
2019-04-03T16:38:46.928Z,5.47
2019-04-03T16:41:19.871Z,2.08
2019-04-03T16:43:52.894Z,2.90
2019-04-03T16:46:27.670Z,10.60
2019-04-03T16:49:00.328Z,4.55
2019-04-03T16:51:33.785Z,2.37
2019-04-03T16:54:10.282Z,4.67
2019-04-03T16:56:41.628Z,5.92
2019-04-03T16:59:15.497Z,3.15
2019-04-03T17:01:49.432Z,3.80
2019-04-03T17:04:27.195Z,4.16
2019-04-03T17:06:57.609Z,2.12
2019-04-03T17:09:32.618Z,6.17
2019-04-03T17:12:04.593Z,5.15
2019-04-03T17:14:37.730Z,4.10
2019-04-03T17:17:13.646Z,6.62
2019-04-03T17:19:44.812Z,4.33
2019-04-03T17:22:19.037Z,3.72
2019-04-03T17:24:54.023Z,5.20
2019-04-03T17:27:25.681Z,2.67
2019-04-03T17:29:58.645Z,5.15
2019-04-03T17:32:31.732Z,4.00
2019-04-03T17:35:06.767Z,6.40
2019-04-03T17:37:39.361Z,2.60
2019-04-03T17:42:46.092Z,2.30
2019-04-03T17:47:53.912Z,1.70
2019-04-03T17:50:29.405Z,1.92
2019-04-03T17:53:01.766Z,2.03
2019-04-03T17:55:34.568Z,2.05
2019-04-03T17:58:07.606Z,3.15
2019-04-03T18:00:40.534Z,2.40
2019-04-03T18:03:13.446Z,2.30
2019-04-03T18:05:45.830Z,5.03
2019-04-03T18:08:19.629Z,4.37
2019-04-03T18:10:52.306Z,2.87
2019-04-03T18:13:25.044Z,3.22
2019-04-03T18:15:58.908Z,4.27
2019-04-03T18:18:33.354Z,4.28
2019-04-03T18:21:06.364Z,3.98
2019-04-03T18:23:40.348Z,4.47
2019-04-03T18:26:13.082Z,6.95
2019-04-03T18:28:45.716Z,5.03
2019-04-03T18:31:21.310Z,4.05
2019-04-03T18:33:56.418Z,4.00
2019-04-03T18:36:31.200Z,4.67
2019-04-03T18:39:05.048Z,3.92
2019-04-03T18:41:37.877Z,4.83
2019-04-03T18:44:21.535Z,5.80
2019-04-03T18:46:44.857Z,5.12
2019-04-03T18:49:17.571Z,4.67
2019-04-03T18:51:50.298Z,4.12
2019-04-03T18:54:23.286Z,5.62
2019-04-03T18:56:55.799Z,5.37
2019-04-03T18:59:28.366Z,10.10
2019-04-03T19:02:01.977Z,6.00
2019-04-03T19:04:40.829Z,6.77
2019-04-03T19:07:15.271Z,5.17
2019-04-03T19:09:47.818Z,8.48
2019-04-03T19:12:20.360Z,8.15
2019-04-03T19:14:53.019Z,5.95
2019-04-03T19:17:25.528Z,7.07
2019-04-03T19:20:09.687Z,4.93
2019-04-03T19:22:32.796Z,7.53
2019-04-03T19:25:07.501Z,4.33
2019-04-03T19:27:40.306Z,7.45
2019-04-03T19:30:13.413Z,4.42
2019-04-03T19:32:46.080Z,5.05
2019-04-03T19:35:20.313Z,4.82
2019-04-03T19:37:52.758Z,4.47
2019-04-03T19:40:25.397Z,6.83
2019-04-03T19:42:57.779Z,3.83
2019-04-03T19:45:33.272Z,5.97
2019-04-03T19:48:06.049Z,4.47
2019-04-03T19:50:38.490Z,4.70
2019-04-03T19:53:13.195Z,3.83
2019-04-03T19:55:45.387Z,4.62
2019-04-03T19:58:18.347Z,4.00
2019-04-03T20:00:51.635Z,4.45
2019-04-03T20:03:24.645Z,4.20
2019-04-03T20:05:58.824Z,4.12
2019-04-03T20:08:31.683Z,2.87
2019-04-03T20:11:05.089Z,2.92
2019-04-03T20:13:39.873Z,2.55
2019-04-03T20:16:12.998Z,6.37
2019-04-03T20:18:45.806Z,3.08
2019-04-03T20:21:18.322Z,4.08
2019-04-03T20:23:50.881Z,5.15
2019-04-03T20:26:24.033Z,4.60
2019-04-03T20:28:58.562Z,3.20
2019-04-03T20:31:36.309Z,1.17
2019-04-03T20:34:08.867Z,2.03
2019-04-03T20:36:41.471Z,1.70
2019-04-03T20:39:17.470Z,1.20
2019-04-03T20:41:50.324Z,2.52
2019-04-03T20:44:22.740Z,5.10
2019-04-03T20:46:56.563Z,1.86
2019-04-03T20:49:28.878Z,1.50
2019-04-03T20:52:01.329Z,2.02
2019-04-03T20:54:33.745Z,1.57
2019-04-03T20:57:13.822Z,2.00
2019-04-03T20:59:58.655Z,1.37
2019-04-03T21:02:21.371Z,0.85
2019-04-03T21:04:53.911Z,1.82
2019-04-03T21:07:26.324Z,1.03
2019-04-03T21:10:00.519Z,1.00
2019-04-03T21:12:35.832Z,1.42
2019-04-03T21:15:14.178Z,0.83
2019-04-03T21:17:51.377Z,1.10
2019-04-03T21:20:24.766Z,0.78
2019-04-03T21:22:58.745Z,1.40
2019-04-03T21:25:31.307Z,0.78
2019-04-03T21:28:03.870Z,1.17
2019-04-03T21:30:36.431Z,1.52
2019-04-03T21:33:08.825Z,0.80
2019-04-03T21:35:42.391Z,1.12
2019-04-03T21:38:20.015Z,1.65
2019-04-03T21:40:55.765Z,0.70
2019-04-03T21:43:29.802Z,1.60
2019-04-03T21:46:02.305Z,1.20
2019-04-03T21:48:34.866Z,1.05
2019-04-03T21:51:07.748Z,1.00
2019-04-03T21:53:44.589Z,3.75
2019-04-03T21:56:31.007Z,2.50
2019-04-03T21:59:05.823Z,4.72
2019-04-03T22:01:45.420Z,2.85
2019-04-03T22:04:22.845Z,2.33
2019-04-03T22:07:01.866Z,5.05
2019-04-03T22:09:34.749Z,2.22
2019-04-03T22:12:07.668Z,1.70
2019-04-03T22:14:43.482Z,3.05
2019-04-03T22:17:23.751Z,3.20
2019-04-03T22:19:59.386Z,3.58
2019-04-03T22:22:33.836Z,2.25
2019-04-03T22:25:09.021Z,2.00
2019-04-03T22:27:42.853Z,2.15
2019-04-03T22:30:16.173Z,5.97
2019-04-03T22:32:49.753Z,3.58
2019-04-03T22:35:39.404Z,4.75
2019-04-03T22:38:14.805Z,4.87
2019-04-03T22:40:53.557Z,5.20
2019-04-03T22:43:21.789Z,2.30
2019-04-03T22:45:54.390Z,2.05
2019-04-03T22:48:28.425Z,2.05
2019-04-03T22:51:00.873Z,2.58
2019-04-03T22:53:33.398Z,1.60
2019-04-03T22:56:05.876Z,1.30
2019-04-03T22:58:41.031Z,0.93
2019-04-03T23:01:13.700Z,1.10
2019-04-03T23:03:49.552Z,0.85
2019-04-03T23:06:22.294Z,1.55
2019-04-03T23:08:59.354Z,3.30
2019-04-03T23:11:32.023Z,6.83
2019-04-03T23:14:08.002Z,5.03
2019-04-03T23:16:42.683Z,2.85
2019-04-03T23:19:21.684Z,4.60
2019-04-03T23:21:55.571Z,2.87
2019-04-03T23:24:32.018Z,2.33
2019-04-03T23:27:04.431Z,3.73
2019-04-03T23:29:37.866Z,3.60
2019-04-03T23:32:15.278Z,2.50
2019-04-03T23:34:53.618Z,2.22
2019-04-03T23:37:26.292Z,1.52
2019-04-03T23:40:00.751Z,1.90
2019-04-03T23:42:32.256Z,1.70
2019-04-03T23:45:07.041Z,1.00
2019-04-03T23:47:45.139Z,1.60
2019-04-03T23:50:13.691Z,2.05
2019-04-03T23:52:46.298Z,2.17
2019-04-03T23:55:21.009Z,1.50
2019-04-03T23:57:55.306Z,2.33
